ADDS METAR Data INFO
IDs: Format: Raw Decoded Include TAF

Data at: 1212 UTC 20 May 2018

KABY 201153Z 00000KT 10SM CLR 23/22 A3011 RMK AO2 SLP194 60000 70042 T02280217 10228 20211 51009